Vrsac, Serbia

8:30 PM CEST on October 01, 2014 (GMT +0200)
Vrsac | Change Station
CLOSE
Current Station
Airport
Location: Vrsac,
Elevation: 279 ft
Nearby Weather Stations

Elev 279 ft 45.15 °N, 21.31 °E | Updated 32 seconds ago

Clear
Clear
55 °F
Feels Like 55 °F
N
4
Wind Variable Wind from NNE

Today
High -- | Low -- °F
--% Chance of Precip.
Yesterday
High -- | Low -- °F
Precip. -- in
6:32 AM 6:15 PM
Waxing Crescent, 50% visible
Pressure 30.24 in
Visibility -9999.0 miles
Clouds
Dew Point 52 °F
Humidity 88%
Rainfall 0.00 in
Snow Depth Not available.
UV Not available.
Pollen Not available.
Air Quality Not available.
Flu Activity Not available.
METAR LYVR 301830Z 03003KT CAVOK 13/11 Q1024 NOSIG

More Conditions Fewer Conditions

Pressure 30.24 in
Visibility -9999.0 miles
Clouds
Dew Point 52 °F
Humidity 88%
Rainfall 0.00 in
Snow Depth Not available.
UV Not available.
Pollen Not available.
Air Quality Not available.
Flu Activity Not available.
METAR LYVR 301830Z 03003KT CAVOK 13/11 Q1024 NOSIG

More Conditions Fewer Conditions

10-Day Weather Forecast

Almanac

Astronomy

Oct. 01, 2014 Rise Set
Actual Time 6:32 AM CEST 6:15 PM CEST
Civil Twilight 6:03 AM CEST 6:44 PM CEST
Nautical Twilight 5:28 AM CEST 7:19 PM CEST
Astronomical Twilight 4:54 AM CEST 7:53 PM CEST
Moon 1:29 PM CEST 11:16 PM CEST
Length of Visible Light 12h 41m
Length of Day
11h 43m
Tomorrow will be 3m 8s shorter.
Waxing Crescent, 50% of the Moon is Illuminated
Today
Waxing Crescent
Oct 1
First Quarter
Oct 8
Full
Oct 15
Last Quarter
Oct 23
New

Community

WunderPhotos

Upload Photos

1,758,010 photos uploaded!

WunderBlogs® & News

By Dr. Jeff Masters
Director of Meteorology, Weather Underground
By Kari Strenfel
Meteorologist, Weather Underground
By Christopher C. Burt
Weather Historian, Weather Underground
October 1, 2014
October 1, 2014
October 1, 2014

Nearby

Snow Depth

Not available.

Earthquake Activity

City Distance Mag. Time & Date
No recent earthquake activity has been reported nearby.
Minimum magnitude displayed is 2.5.

Coastal Water Temperatures

Place Temperature
No Stations Reporting

Nearby Weather Stations